Time;durP1;ratioP1;P1;durP2;ratioP2;P2;SDS_P1;SDS_P2;PMS_P1;PMS_P2;Temp;Humidity;BMP_temperature;BMP_pressure;BME280_temperature;BME280_humidity;BME280_pressure;Samples;Min_cycle;Max_cycle;Signal;HPM_P1;HPM_P2
2021/06/18 00:00:30;;;;;;;15.75;6.53;;;;;;;20.10;56.27;100517.31;125811;1090;22819;-61
2021/06/18 00:03:24;;;;;;;13.50;6.03;;;;;;;20.04;56.60;100510.97;127191;1093;22818;-61
2021/06/18 00:05:55;;;;;;;14.67;6.30;;;;;;;20.01;56.56;100517.70;125939;1093;22806;-61
2021/06/18 00:08:27;;;;;;;14.30;7.23;;;;;;;20.02;56.86;100510.74;125915;1092;23001;-61
2021/06/18 00:10:59;;;;;;;16.38;7.33;;;;;;;20.01;56.91;100509.20;126030;1092;22748;-61
2021/06/18 00:13:32;;;;;;;13.33;6.60;;;;;;;20.01;57.06;100512.03;125856;1093;25813;-61
2021/06/18 00:16:04;;;;;;;15.43;6.47;;;;;;;19.99;56.65;100517.47;125817;1092;22865;-60
2021/06/18 00:18:39;;;;;;;14.93;6.58;;;;;;;19.97;56.79;100513.64;125953;1092;26267;-61
2021/06/18 00:21:11;;;;;;;14.93;6.60;;;;;;;19.95;57.12;100510.58;126101;1093;24469;-62
2021/06/18 00:23:43;;;;;;;17.35;7.63;;;;;;;19.92;57.07;100503.17;125944;1091;26254;-61
2021/06/18 00:26:15;;;;;;;14.33;7.13;;;;;;;19.86;57.48;100508.91;125904;1093;25823;-61
2021/06/18 00:28:46;;;;;;;13.58;7.00;;;;;;;19.80;57.37;100507.47;125904;1093;22763;-61
2021/06/18 00:31:18;;;;;;;12.93;6.70;;;;;;;19.73;57.24;100503.19;125806;1093;22861;-60
2021/06/18 00:33:51;;;;;;;14.27;6.80;;;;;;;19.71;57.26;100507.84;125723;1093;22764;-61
2021/06/18 00:36:23;;;;;;;13.30;6.57;;;;;;;19.67;57.40;100502.50;125879;1093;22771;-61
2021/06/18 00:38:54;;;;;;;12.90;6.48;;;;;;;19.64;57.93;100509.22;125889;1093;22789;-59
2021/06/18 00:41:26;;;;;;;15.93;7.35;;;;;;;19.61;57.86;100504.64;125864;1093;22870;-61
2021/06/18 00:43:59;;;;;;;12.67;6.77;;;;;;;19.57;58.01;100503.41;125895;1091;23209;-61
2021/06/18 00:46:31;;;;;;;17.25;7.05;;;;;;;19.53;57.99;100502.95;125869;1093;23858;-60
2021/06/18 00:49:02;;;;;;;14.50;6.90;;;;;;;19.51;58.17;100499.89;126050;1092;22797;-60
2021/06/18 00:51:34;;;;;;;16.18;7.68;;;;;;;19.47;58.22;100497.34;125864;1092;22794;-60
2021/06/18 00:54:06;;;;;;;14.17;6.17;;;;;;;19.45;57.96;100491.45;126059;1093;22766;-60
2021/06/18 00:56:37;;;;;;;13.57;7.57;;;;;;;19.41;58.43;100485.33;125891;1093;22761;-61
2021/06/18 00:59:14;;;;;;;14.95;7.08;;;;;;;19.38;58.31;100488.47;125864;1093;22757;-59
2021/06/18 01:01:47;;;;;;;16.10;7.37;;;;;;;19.33;58.43;100487.20;125953;1093;22784;-61
2021/06/18 01:04:19;;;;;;;14.80;7.55;;;;;;;19.28;58.83;100483.14;125969;1093;22791;-61
2021/06/18 01:06:57;;;;;;;16.87;7.13;;;;;;;19.25;59.03;100477.80;125899;1093;22815;-62
2021/06/18 01:09:33;;;;;;;16.50;8.10;;;;;;;19.23;58.98;100474.73;125896;1093;22845;-62
2021/06/18 01:12:14;;;;;;;14.70;7.40;;;;;;;19.18;58.59;100472.75;125862;1091;22791;-61
2021/06/18 01:14:58;;;;;;;15.50;7.50;;;;;;;19.16;59.24;100481.02;125939;1092;22748;-59
2021/06/18 01:17:42;;;;;;;14.70;7.03;;;;;;;19.11;59.00;100484.66;126206;1093;24133;-61
2021/06/18 01:20:32;;;;;;;14.05;8.00;;;;;;;19.06;59.46;100474.93;125890;1093;26668;-62
2021/06/18 01:23:12;;;;;;;14.05;7.03;;;;;;;19.01;59.19;100470.13;126018;1093;22764;-59
2021/06/18 01:25:49;;;;;;;14.80;6.90;;;;;;;18.98;59.51;100482.49;125862;1092;22878;-62
2021/06/18 01:28:42;;;;;;;15.45;8.25;;;;;;;18.96;59.09;100473.00;126023;1093;22816;-60
2021/06/18 01:31:17;;;;;;;15.97;7.67;;;;;;;18.92;59.45;100472.53;126060;1093;25941;-61
2021/06/18 01:33:56;;;;;;;15.30;7.90;;;;;;;18.89;59.34;100473.61;125900;1093;22772;-61
2021/06/18 01:36:30;;;;;;;18.25;8.65;;;;;;;18.86;59.76;100471.83;126159;1093;22760;-59
2021/06/18 01:39:03;;;;;;;15.60;7.90;;;;;;;18.81;59.66;100472.67;126072;1093;22765;-61
2021/06/18 01:41:36;;;;;;;18.10;8.00;;;;;;;18.77;59.95;100478.60;126008;1093;22764;-61
2021/06/18 01:44:09;;;;;;;15.20;8.40;;;;;;;18.72;60.03;100473.02;125820;1092;22760;-61
2021/06/18 01:46:42;;;;;;;14.10;7.90;;;;;;;18.66;59.58;100492.10;125943;1092;22784;-61
2021/06/18 01:49:17;;;;;;;15.50;7.10;;;;;;;18.61;60.21;100487.25;125819;1092;22761;-61
2021/06/18 01:51:54;;;;;;;17.40;8.85;;;;;;;18.54;60.06;100486.55;125855;1093;22797;-59
2021/06/18 01:54:28;;;;;;;14.35;7.00;;;;;;;18.48;60.19;100482.23;125908;1093;25845;-61
2021/06/18 01:57:03;;;;;;;17.60;8.75;;;;;;;18.44;60.23;100490.23;125780;1093;24454;-61
2021/06/18 01:59:37;;;;;;;14.35;7.75;;;;;;;18.39;60.60;100488.95;125826;1093;22849;-62
2021/06/18 02:02:10;;;;;;;15.53;7.30;;;;;;;18.35;60.59;100476.43;126041;1092;22763;-60
2021/06/18 02:04:44;;;;;;;16.95;7.80;;;;;;;18.32;60.43;100486.72;126079;1093;22760;-61
2021/06/18 02:07:17;;;;;;;13.87;7.37;;;;;;;18.30;60.96;100480.83;125853;1093;22752;-61
2021/06/18 02:09:49;;;;;;;15.45;7.70;;;;;;;18.28;61.12;100476.99;125836;1093;22770;-60
2021/06/18 02:12:24;;;;;;;16.30;8.30;;;;;;;18.25;61.14;100484.45;125772;1093;23277;-62
2021/06/18 02:14:58;;;;;;;17.05;8.40;;;;;;;18.22;60.78;100474.23;125954;1093;22956;-62
2021/06/18 02:17:34;;;;;;;14.80;8.05;;;;;;;18.17;61.42;100482.73;130169;1093;22507;-62
2021/06/18 02:20:08;;;;;;;14.95;7.70;;;;;;;18.12;61.27;100480.73;128092;1092;22861;-62
2021/06/18 02:22:41;;;;;;;14.90;8.20;;;;;;;18.09;60.98;100471.23;126054;1091;22761;-61
2021/06/18 02:25:16;;;;;;;15.15;7.65;;;;;;;18.07;61.51;100479.48;125875;1092;22784;-62
2021/06/18 02:27:48;;;;;;;14.93;7.90;;;;;;;18.05;61.38;100473.59;125900;1093;22861;-60
2021/06/18 02:30:21;;;;;;;14.60;7.30;;;;;;;18.04;61.27;100465.64;125829;1093;22791;-61
2021/06/18 02:32:54;;;;;;;14.65;8.05;;;;;;;18.04;61.56;100472.06;125917;1092;22784;-61
2021/06/18 02:35:25;;;;;;;17.10;8.50;;;;;;;18.05;61.54;100472.81;125912;1092;23351;-61
2021/06/18 02:37:57;;;;;;;18.57;8.47;;;;;;;18.03;61.43;100475.39;126304;1093;22767;-61
2021/06/18 02:40:30;;;;;;;16.40;7.60;;;;;;;18.01;61.68;100469.50;125885;1093;22772;-61
2021/06/18 02:43:01;;;;;;;18.25;7.80;;;;;;;17.98;61.79;100474.14;126160;1092;22761;-61
2021/06/18 02:45:33;;;;;;;14.35;7.85;;;;;;;17.97;62.03;100483.14;125861;1092;27201;-61
2021/06/18 02:48:12;;;;;;;18.90;8.07;;;;;;;17.92;62.29;100481.89;125859;1091;22943;-61
2021/06/18 02:50:48;;;;;;;14.20;7.60;;;;;;;17.88;62.33;100484.23;125875;1093;22813;-61
2021/06/18 02:53:25;;;;;;;14.35;7.75;;;;;;;17.87;61.88;100496.05;125803;1092;22919;-61
2021/06/18 02:56:05;;;;;;;14.30;7.40;;;;;;;17.84;62.52;100485.80;125907;1093;27148;-61
2021/06/18 02:58:42;;;;;;;15.93;8.55;;;;;;;17.79;62.87;100493.78;125861;1093;25842;-60
2021/06/18 03:01:15;;;;;;;16.50;7.65;;;;;;;17.73;62.28;100495.13;125761;1093;24424;-62
2021/06/18 03:03:48;;;;;;;16.45;8.20;;;;;;;17.71;62.96;100497.71;125853;1092;22931;-60
2021/06/18 03:06:23;;;;;;;15.60;8.45;;;;;;;17.68;62.78;100507.21;125850;1093;22791;-61
2021/06/18 03:08:58;;;;;;;16.90;8.70;;;;;;;17.67;63.05;100500.05;125874;1093;22791;-61
2021/06/18 03:11:33;;;;;;;18.05;8.50;;;;;;;17.64;63.23;100501.08;126003;1093;24550;-61
2021/06/18 03:14:08;;;;;;;16.90;7.95;;;;;;;17.64;63.02;100493.38;125888;1093;27188;-62
2021/06/18 03:16:42;;;;;;;19.63;8.43;;;;;;;17.66;63.16;100495.67;125902;1092;24425;-60
2021/06/18 03:19:17;;;;;;;17.45;8.60;;;;;;;17.66;63.14;100502.09;125909;1093;22783;-61
2021/06/18 03:21:51;;;;;;;19.40;9.00;;;;;;;17.66;63.13;100504.92;125863;1091;24817;-60
2021/06/18 03:24:26;;;;;;;17.55;8.20;;;;;;;17.64;63.47;100510.32;125899;1093;22794;-59
2021/06/18 03:26:59;;;;;;;15.60;8.70;;;;;;;17.64;63.43;100518.02;125820;1093;26337;-61
2021/06/18 03:29:33;;;;;;;19.47;8.30;;;;;;;17.61;63.27;100511.34;125932;1092;22781;-59
2021/06/18 03:32:06;;;;;;;17.07;8.10;;;;;;;17.60;63.53;100514.70;125945;1093;24653;-61
2021/06/18 03:34:39;;;;;;;16.15;8.35;;;;;;;17.57;63.58;100516.50;125987;1092;22790;-62
2021/06/18 03:37:12;;;;;;;17.70;8.10;;;;;;;17.57;63.82;100524.20;125819;1093;22777;-62
2021/06/18 03:39:44;;;;;;;20.80;8.27;;;;;;;17.51;64.07;100521.41;125957;1092;22760;-59
2021/06/18 03:42:15;;;;;;;17.70;7.15;;;;;;;17.47;64.14;100529.36;125917;1093;22801;-60
2021/06/18 03:44:48;;;;;;;22.23;8.30;;;;;;;17.46;64.16;100515.77;125895;1093;26974;-61
2021/06/18 03:47:22;;;;;;;20.90;8.50;;;;;;;17.48;64.25;100513.20;125962;1093;22767;-61
2021/06/18 03:49:58;;;;;;;20.30;8.35;;;;;;;17.51;63.95;100521.41;125991;1092;22764;-59
2021/06/18 03:52:29;;;;;;;19.25;8.10;;;;;;;17.57;64.47;100515.73;125964;1092;22766;-60
2021/06/18 03:55:01;;;;;;;16.65;7.20;;;;;;;17.60;64.32;100526.00;125902;1093;22917;-60
2021/06/18 03:57:35;;;;;;;18.60;8.75;;;;;;;17.62;64.56;100520.59;125884;1093;27673;-59
2021/06/18 04:00:10;;;;;;;18.25;8.80;;;;;;;17.68;64.30;100518.50;125915;1093;22790;-61
2021/06/18 04:02:42;;;;;;;18.10;8.25;;;;;;;17.73;64.46;100517.72;126053;1092;22932;-61
2021/06/18 04:05:18;;;;;;;18.10;9.05;;;;;;;17.79;64.40;100510.72;125963;1092;22816;-58
2021/06/18 04:07:54;;;;;;;17.65;7.30;;;;;;;17.86;64.26;100512.23;125849;1093;23470;-60
2021/06/18 04:10:28;;;;;;;18.60;8.80;;;;;;;17.95;64.17;100509.09;125900;1093;22890;-59
2021/06/18 04:13:00;;;;;;;17.75;8.35;;;;;;;18.02;64.23;100511.34;125849;1093;22784;-60
2021/06/18 04:15:32;;;;;;;22.35;9.15;;;;;;;18.10;64.22;100509.52;126034;1093;22851;-61
2021/06/18 04:18:05;;;;;;;17.15;8.55;;;;;;;18.17;64.25;100511.76;125897;1093;22783;-60
2021/06/18 04:20:37;;;;;;;21.25;9.10;;;;;;;18.25;64.08;100504.24;125956;1093;22848;-61
2021/06/18 04:23:11;;;;;;;17.35;8.00;;;;;;;18.32;64.14;100511.39;126189;1093;22903;-61
2021/06/18 04:25:45;;;;;;;16.65;7.80;;;;;;;18.38;64.20;100506.45;125855;1093;22858;-61
2021/06/18 04:28:16;;;;;;;19.35;8.65;;;;;;;18.45;64.29;100508.74;126014;1093;22819;-61
2021/06/18 04:30:48;;;;;;;16.95;7.95;;;;;;;18.53;63.98;100516.13;125837;1093;22816;-59
2021/06/18 04:33:19;;;;;;;17.85;8.45;;;;;;;18.65;64.09;100511.13;125986;1092;22793;-60
2021/06/18 04:35:51;;;;;;;22.35;7.90;;;;;;;18.75;64.06;100512.30;125852;1093;26610;-61
2021/06/18 04:38:22;;;;;;;18.45;8.50;;;;;;;18.84;63.71;100503.48;125885;1092;25846;-63
2021/06/18 04:40:55;;;;;;;16.67;6.70;;;;;;;18.94;63.72;100504.66;125871;1091;22938;-60
2021/06/18 04:43:28;;;;;;;20.77;8.07;;;;;;;19.07;64.00;100504.00;125853;1093;27358;-61
2021/06/18 04:46:00;;;;;;;20.10;8.10;;;;;;;19.16;63.92;100507.22;125883;1093;22947;-61
2021/06/18 04:48:31;;;;;;;17.25;7.10;;;;;;;19.28;63.58;100502.22;126039;1093;25846;-60
2021/06/18 04:51:09;;;;;;;16.20;7.80;;;;;;;19.39;63.31;100512.67;125801;1091;25922;-60
2021/06/18 04:53:41;;;;;;;19.25;7.10;;;;;;;19.49;63.35;100508.16;125841;1093;22919;-58
2021/06/18 04:56:13;;;;;;;18.25;8.60;;;;;;;19.56;63.00;100511.14;125829;1093;24570;-60
2021/06/18 04:58:45;;;;;;;16.95;7.85;;;;;;;19.63;62.80;100510.54;125850;1093;22766;-60
2021/06/18 05:01:16;;;;;;;16.85;7.50;;;;;;;19.71;63.07;100502.95;126162;1093;22815;-60
2021/06/18 05:03:48;;;;;;;19.85;7.90;;;;;;;19.80;63.00;100505.39;125789;1092;29039;-60
2021/06/18 05:06:21;;;;;;;17.00;7.20;;;;;;;19.90;62.83;100506.55;125828;1093;25846;-60
2021/06/18 05:08:53;;;;;;;22.10;8.27;;;;;;;20.01;62.33;100506.36;125830;1093;22761;-60
2021/06/18 05:11:25;;;;;;;18.20;7.70;;;;;;;20.12;62.78;100511.88;125921;1091;22790;-60
2021/06/18 05:13:56;;;;;;;16.57;7.37;;;;;;;20.30;61.94;100503.91;125868;1091;22791;-59
2021/06/18 05:16:29;;;;;;;16.40;6.60;;;;;;;20.44;61.77;100508.30;125935;1093;25960;-60
2021/06/18 05:19:01;;;;;;;18.93;8.17;;;;;;;20.57;61.58;100513.98;125911;1093;26334;-59
2021/06/18 05:21:33;;;;;;;17.70;8.17;;;;;;;20.67;61.67;100509.45;125808;1093;22849;-59
2021/06/18 05:24:07;;;;;;;19.97;9.37;;;;;;;20.79;61.50;100505.88;125910;1092;25873;-57
2021/06/18 05:26:38;;;;;;;17.48;6.88;;;;;;;20.91;61.33;100498.67;125898;1092;22765;-58
2021/06/18 05:29:10;;;;;;;21.33;8.50;;;;;;;21.06;61.20;100511.58;125844;1093;22822;-58
2021/06/18 05:31:42;;;;;;;16.95;7.10;;;;;;;21.18;60.86;100510.05;125682;1093;24262;-60
2021/06/18 05:34:16;;;;;;;16.80;7.90;;;;;;;21.31;60.78;100513.63;125927;1093;22763;-59
2021/06/18 05:36:48;;;;;;;16.73;7.13;;;;;;;21.36;60.43;100507.09;125894;1091;22793;-60
2021/06/18 05:39:19;;;;;;;17.08;7.58;;;;;;;21.47;60.64;100508.94;125950;1091;26495;-61
2021/06/18 05:41:51;;;;;;;20.75;7.40;;;;;;;21.59;60.35;100516.67;125835;1093;22761;-61
2021/06/18 05:44:23;;;;;;;17.48;7.90;;;;;;;21.70;60.37;100515.66;125704;1093;24462;-60
2021/06/18 05:46:54;;;;;;;17.58;7.15;;;;;;;21.82;60.10;100516.97;125713;1093;25842;-67
2021/06/18 05:49:26;;;;;;;16.75;7.83;;;;;;;21.92;59.51;100517.26;125481;1093;22763;-60
2021/06/18 05:51:57;;;;;;;17.67;7.37;;;;;;;21.96;59.48;100514.84;125617;1093;22756;-59
2021/06/18 05:54:29;;;;;;;15.55;7.25;;;;;;;21.99;59.10;100514.52;125778;1093;22745;-60
2021/06/18 05:57:01;;;;;;;17.85;8.63;;;;;;;22.12;59.41;100519.39;125875;1091;22764;-61
2021/06/18 05:59:32;;;;;;;20.03;7.70;;;;;;;22.22;59.14;100524.02;125926;1092;24411;-60
2021/06/18 06:02:04;;;;;;;18.60;7.93;;;;;;;22.28;58.86;100518.22;125800;1093;25829;-60
2021/06/18 06:04:35;;;;;;;16.13;7.53;;;;;;;22.35;58.92;100515.44;125944;1093;26309;-61
2021/06/18 06:07:08;;;;;;;14.40;6.20;;;;;;;22.44;58.45;100519.88;125814;1092;22817;-60
2021/06/18 06:09:39;;;;;;;18.97;9.07;;;;;;;22.53;58.45;100533.63;125984;1093;22845;-61
2021/06/18 06:12:11;;;;;;;18.45;8.25;;;;;;;22.64;57.86;100527.67;125749;1093;24631;-62
2021/06/18 06:14:43;;;;;;;16.60;7.47;;;;;;;22.70;57.86;100522.59;126030;1093;22826;-60
2021/06/18 06:17:14;;;;;;;17.88;7.10;;;;;;;22.82;57.46;100535.23;125766;1093;26508;-62
2021/06/18 06:19:46;;;;;;;16.30;7.00;;;;;;;22.86;57.48;100535.65;125854;1092;22784;-61
2021/06/18 06:22:18;;;;;;;18.23;7.50;;;;;;;22.95;57.25;100532.28;125830;1093;22793;-60
2021/06/18 06:24:49;;;;;;;14.88;6.88;;;;;;;23.06;57.05;100528.38;125897;1093;25842;-61
2021/06/18 06:27:21;;;;;;;18.63;7.37;;;;;;;23.18;56.88;100529.58;125800;1092;22925;-61
2021/06/18 06:29:53;;;;;;;16.60;7.35;;;;;;;23.28;56.51;100536.29;125709;1092;27188;-61
2021/06/18 06:32:25;;;;;;;18.35;7.43;;;;;;;23.36;56.27;100537.12;126180;1092;22760;-59
2021/06/18 06:34:57;;;;;;;15.43;7.73;;;;;;;23.44;56.39;100531.48;125849;1092;25935;-60
2021/06/18 06:37:29;;;;;;;17.70;6.90;;;;;;;23.55;56.08;100533.98;125794;1092;26223;-60
2021/06/18 06:40:00;;;;;;;16.58;8.50;;;;;;;23.63;55.94;100526.26;126047;1093;22810;-59
2021/06/18 06:42:32;;;;;;;15.10;7.10;;;;;;;23.74;55.56;100531.61;125793;1092;22828;-59
2021/06/18 06:45:04;;;;;;;17.88;7.40;;;;;;;23.80;55.53;100526.50;125781;1093;25845;-59
2021/06/18 06:47:35;;;;;;;15.38;6.98;;;;;;;23.88;55.34;100524.42;126137;1093;22767;-59
2021/06/18 06:50:09;;;;;;;18.70;6.93;;;;;;;23.96;55.15;100514.58;125792;1093;24526;-59
2021/06/18 06:52:41;;;;;;;17.78;6.60;;;;;;;23.99;55.48;100510.60;126141;1093;22764;-59
2021/06/18 06:55:16;;;;;;;15.75;6.38;;;;;;;24.11;54.91;100525.29;126268;1093;22761;-59
2021/06/18 06:57:47;;;;;;;15.90;6.33;;;;;;;24.21;54.71;100516.96;126111;1093;28408;-59
2021/06/18 07:00:21;;;;;;;18.70;7.30;;;;;;;24.28;54.86;100519.05;125812;1092;22760;-59
2021/06/18 07:02:52;;;;;;;15.77;6.60;;;;;;;24.33;54.64;100521.73;126021;1093;26982;-59
2021/06/18 07:05:24;;;;;;;20.52;7.68;;;;;;;24.41;54.44;100516.80;125780;1093;25629;-59
2021/06/18 07:07:56;;;;;;;18.20;7.35;;;;;;;24.50;53.86;100524.77;125752;1093;22770;-59
2021/06/18 07:10:27;;;;;;;19.88;7.75;;;;;;;24.59;54.04;100515.66;125844;1093;22797;-59
2021/06/18 07:12:59;;;;;;;17.58;7.15;;;;;;;24.71;54.04;100516.79;125851;1093;22848;-59
2021/06/18 07:15:30;;;;;;;16.80;7.13;;;;;;;24.79;53.58;100506.16;125926;1093;22790;-60
2021/06/18 07:18:01;;;;;;;16.78;7.05;;;;;;;24.85;53.40;100515.28;125906;1092;22760;-59
2021/06/18 07:20:33;;;;;;;14.25;6.45;;;;;;;24.95;53.39;100511.86;125916;1091;22786;-60
2021/06/18 07:23:09;;;;;;;16.83;6.83;;;;;;;25.02;53.12;100511.84;126391;1093;22794;-60
2021/06/18 07:25:42;;;;;;;18.35;6.70;;;;;;;25.10;53.36;100506.86;125915;1093;26292;-60
2021/06/18 07:28:14;;;;;;;14.80;6.08;;;;;;;25.22;53.12;100507.23;125952;1093;22932;-60
2021/06/18 07:30:46;;;;;;;18.87;6.87;;;;;;;25.30;52.35;100508.74;125852;1093;22777;-60
2021/06/18 07:33:18;;;;;;;19.00;8.93;;;;;;;25.34;52.26;100506.25;126024;1093;22764;-60
2021/06/18 07:35:50;;;;;;;18.00;6.50;;;;;;;25.37;52.00;100504.31;125900;1091;22803;-61
2021/06/18 07:38:21;;;;;;;21.43;6.75;;;;;;;25.41;51.97;100501.88;126074;1091;22794;-62
2021/06/18 07:40:53;;;;;;;18.40;6.80;;;;;;;25.48;51.86;100498.98;125874;1093;22766;-62
2021/06/18 07:43:24;;;;;;;18.18;6.13;;;;;;;25.57;51.74;100498.36;125890;1093;22770;-61
2021/06/18 07:45:56;;;;;;;16.38;7.10;;;;;;;25.66;51.65;100494.90;126007;1093;23361;-62
2021/06/18 07:48:27;;;;;;;21.80;7.15;;;;;;;25.72;51.09;100491.81;125901;1093;22790;-61
2021/06/18 07:50:59;;;;;;;16.95;7.03;;;;;;;25.79;51.66;100488.17;125872;1093;23395;-62
2021/06/18 07:53:30;;;;;;;17.28;6.65;;;;;;;25.88;51.50;100484.70;125919;1093;24181;-61
2021/06/18 07:56:02;;;;;;;16.75;6.93;;;;;;;26.00;51.59;100482.14;126132;1093;22818;-62
2021/06/18 07:58:34;;;;;;;14.05;5.95;;;;;;;26.10;50.80;100478.09;126585;1092;22819;-61
2021/06/18 08:01:14;;;;;;;10.50;4.85;;;;;;;26.16;50.50;100472.91;126015;1093;22738;-62
2021/06/18 08:03:46;;;;;;;14.88;5.93;;;;;;;26.19;50.42;100471.75;126050;1093;27221;-62
2021/06/18 08:06:17;;;;;;;15.68;6.40;;;;;;;26.27;50.16;100474.55;127133;1092;24468;-61
2021/06/18 08:08:49;;;;;;;19.30;6.40;;;;;;;26.33;50.02;100475.07;125851;1093;22794;-60
2021/06/18 08:11:21;;;;;;;15.25;6.50;;;;;;;26.39;49.76;100467.00;125734;1092;22760;-61
2021/06/18 08:13:52;;;;;;;15.70;6.50;;;;;;;26.48;49.90;100469.97;125776;1093;27619;-62
2021/06/18 08:16:24;;;;;;;18.83;7.27;;;;;;;26.62;50.13;100469.67;125725;1093;22765;-62
2021/06/18 08:18:56;;;;;;;16.23;6.83;;;;;;;26.71;49.54;100466.94;125837;1093;22774;-62
2021/06/18 08:21:27;;;;;;;19.18;6.10;;;;;;;26.80;49.28;100472.02;125743;1092;22914;-62
2021/06/18 08:23:59;;;;;;;13.00;5.50;;;;;;;26.82;48.42;100455.00;125839;1091;25817;-62
2021/06/18 08:26:30;;;;;;;17.48;5.53;;;;;;;26.86;48.62;100458.20;125900;1093;22788;-62
2021/06/18 08:29:02;;;;;;;14.15;4.70;;;;;;;26.95;48.37;100459.64;125867;1093;27178;-63
2021/06/18 08:31:35;;;;;;;13.88;5.65;;;;;;;27.02;48.50;100461.68;126008;1093;22791;-62
2021/06/18 08:34:09;;;;;;;12.90;5.58;;;;;;;27.14;48.35;100460.59;125924;1093;22983;-62
2021/06/18 08:36:41;;;;;;;16.73;6.68;;;;;;;27.25;47.91;100453.59;126249;1092;22791;-63
2021/06/18 08:39:13;;;;;;;16.85;6.50;;;;;;;27.32;47.53;100463.42;125965;1093;22907;-63
2021/06/18 08:41:45;;;;;;;17.78;6.83;;;;;;;27.38;47.65;100458.22;125984;1092;22846;-63
2021/06/18 08:44:18;;;;;;;14.38;4.55;;;;;;;27.47;47.28;100452.58;125975;1092;22794;-63
2021/06/18 08:46:50;;;;;;;14.88;5.55;;;;;;;27.55;46.73;100453.23;126003;1092;22852;-62
2021/06/18 08:49:22;;;;;;;14.48;6.08;;;;;;;27.63;46.52;100451.02;126068;1093;22854;-63
2021/06/18 08:51:54;;;;;;;13.85;5.50;;;;;;;27.72;46.53;100452.44;125980;1093;22771;-63
2021/06/18 08:54:41;;;;;;;12.90;5.40;;;;;;;27.84;45.81;100450.53;125897;1093;25922;-62
2021/06/18 08:57:16;;;;;;;14.03;5.03;;;;;;;27.97;45.35;100458.80;125747;1091;25848;-62
2021/06/18 08:59:49;;;;;;;12.45;4.58;;;;;;;28.03;44.93;100450.67;126043;1093;22791;-61
2021/06/18 09:02:21;;;;;;;14.80;4.58;;;;;;;28.12;45.02;100444.20;126107;1093;22764;-61
2021/06/18 09:05:12;;;;;;;15.05;4.88;;;;;;;28.22;44.29;100444.26;125891;1093;28393;-62
2021/06/18 09:07:55;;;;;;;11.63;4.88;;;;;;;28.34;44.60;100450.95;126234;1091;22819;-62
2021/06/18 09:10:37;;;;;;;15.53;4.90;;;;;;;28.45;43.77;100450.39;126173;1093;22787;-61
2021/06/18 09:13:19;;;;;;;15.73;4.30;;;;;;;28.57;43.00;100443.50;125953;1093;22764;-61
2021/06/18 09:15:53;;;;;;;13.45;4.80;;;;;;;28.63;42.93;100443.20;126076;1093;25849;-62
2021/06/18 09:18:34;;;;;;;8.58;3.58;;;;;;;28.72;42.78;100446.09;125938;1093;22742;-62
2021/06/18 09:21:18;;;;;;;;;;;;;;;28.75;41.05;100436.28;126084;1093;24441;-61
2021/06/18 09:23:51;;;;;;;11.75;4.15;;;;;;;28.72;41.16;100428.84;126414;1093;21467;-60
2021/06/18 09:26:29;;;;;;;12.70;4.25;;;;;;;28.78;41.68;100426.44;126067;1092;22764;-61
2021/06/18 09:29:07;;;;;;;10.50;3.90;;;;;;;28.90;41.68;100434.48;126043;1093;22767;-61
2021/06/18 09:31:42;;;;;;;11.20;3.45;;;;;;;29.05;41.58;100437.06;125998;1092;27147;-59
2021/06/18 09:34:16;;;;;;;11.48;4.35;;;;;;;29.14;40.96;100433.42;126188;1093;22759;-62
2021/06/18 09:36:47;;;;;;;13.00;4.40;;;;;;;29.23;40.84;100430.59;126030;1093;22766;-61
2021/06/18 09:39:19;;;;;;;9.98;4.05;;;;;;;29.29;40.97;100419.53;126147;1092;22844;-60
2021/06/18 09:41:54;;;;;;;12.25;4.00;;;;;;;29.37;40.06;100417.25;126277;1092;23213;-61
2021/06/18 09:44:27;;;;;;;10.68;4.18;;;;;;;29.35;39.93;100422.85;126003;1093;22783;-61
2021/06/18 09:47:05;;;;;;;10.23;4.08;;;;;;;29.33;39.62;100422.70;126071;1092;22821;-60
2021/06/18 09:49:42;;;;;;;9.20;3.73;;;;;;;29.36;39.73;100418.59;125865;1092;27148;-61
2021/06/18 09:52:16;;;;;;;13.13;4.05;;;;;;;29.39;38.48;100419.51;126349;1093;22855;-60
2021/06/18 09:54:52;;;;;;;11.03;3.15;;;;;;;29.42;38.86;100419.05;125906;1091;22763;-60
2021/06/18 09:57:35;;;;;;;10.75;3.98;;;;;;;29.49;39.15;100418.14;125935;1093;22764;-60
2021/06/18 10:00:09;;;;;;;13.05;3.70;;;;;;;29.57;38.67;100412.97;125919;1093;25842;-60
2021/06/18 10:02:46;;;;;;;10.90;3.57;;;;;;;29.63;38.78;100411.91;125963;1093;24422;-59
2021/06/18 10:05:19;;;;;;;9.05;4.03;;;;;;;29.64;38.58;100411.30;126294;1093;26245;-60
2021/06/18 10:07:54;;;;;;;10.35;3.73;;;;;;;29.70;37.86;100408.85;125943;1093;23238;-60
2021/06/18 10:10:29;;;;;;;9.50;2.85;;;;;;;29.70;37.47;100397.34;125840;1093;22748;-60
2021/06/18 10:13:03;;;;;;;7.40;3.10;;;;;;;29.71;37.49;100403.86;126029;1093;22791;-60
2021/06/18 10:15:38;;;;;;;7.93;3.03;;;;;;;29.75;37.58;100402.06;126497;1093;22944;-60
2021/06/18 10:18:13;;;;;;;8.53;3.20;;;;;;;29.80;37.34;100395.22;126079;1093;27148;-61
2021/06/18 10:20:47;;;;;;;8.73;2.80;;;;;;;29.84;36.73;100398.38;126033;1091;22779;-61
2021/06/18 10:23:24;;;;;;;11.50;3.23;;;;;;;29.84;37.17;100397.65;126475;1093;25540;-60
2021/06/18 10:26:00;;;;;;;9.75;3.48;;;;;;;29.94;37.47;100389.73;125891;1092;22797;-61
2021/06/18 10:28:33;;;;;;;9.03;3.28;;;;;;;30.08;37.28;100393.59;126210;1093;22760;-60
2021/06/18 10:31:07;;;;;;;9.00;3.20;;;;;;;30.20;37.40;100388.69;126639;1089;22580;-57
2021/06/18 10:33:41;;;;;;;8.73;3.48;;;;;;;30.23;36.71;100384.59;125933;1090;22807;-59
2021/06/18 10:36:28;;;;;;;8.83;3.65;;;;;;;30.26;36.55;100391.98;125853;1090;26140;-59
2021/06/18 10:39:12;;;;;;;10.83;4.27;;;;;;;30.32;37.15;100393.20;126005;1090;22777;-59
2021/06/18 10:41:53;;;;;;;10.70;3.40;;;;;;;30.40;36.97;100387.23;126365;1090;22874;-60
2021/06/18 10:44:48;;;;;;;9.75;3.33;;;;;;;30.46;36.87;100384.03;126298;1090;25938;-60
2021/06/18 10:47:58;;;;;;;8.08;2.90;;;;;;;30.45;36.60;100388.27;126202;1090;22774;-60
2021/06/18 10:50:52;;;;;;;8.50;2.58;;;;;;;30.52;36.61;100385.17;126101;1090;24435;-60
2021/06/18 10:53:33;;;;;;;8.75;2.98;;;;;;;30.62;36.51;100379.37;125485;1093;28723;-60
2021/06/18 10:56:05;;;;;;;8.95;3.08;;;;;;;30.69;36.49;100369.75;125520;1093;27651;-58
2021/06/18 10:59:09;;;;;;;8.05;2.85;;;;;;;30.77;35.94;100376.81;125583;1096;24484;-60
2021/06/18 11:01:40;;;;;;;6.75;2.30;;;;;;;30.84;35.97;100372.97;125745;1093;22838;-61
2021/06/18 11:04:13;;;;;;;9.70;3.00;;;;;;;30.90;35.83;100375.53;125571;1093;23962;-60
2021/06/18 11:06:48;;;;;;;10.83;2.83;;;;;;;30.94;35.55;100379.44;125612;1093;22969;-59
2021/06/18 11:09:46;;;;;;;7.27;2.40;;;;;;;31.01;35.70;100372.72;125693;1092;22801;-60
2021/06/18 11:12:42;;;;;;;6.90;2.10;;;;;;;31.06;35.08;100373.72;125560;1092;22906;-60
2021/06/18 11:15:41;;;;;;;8.15;1.88;;;;;;;31.05;34.60;100366.45;125688;1093;26740;-60
2021/06/18 11:18:19;;;;;;;7.43;1.90;;;;;;;31.09;34.42;100360.95;125331;1093;22909;-60
2021/06/18 11:21:02;;;;;;;7.45;2.20;;;;;;;31.15;34.24;100367.12;125826;1093;23007;-60
2021/06/18 11:23:36;;;;;;;7.93;2.00;;;;;;;31.22;33.80;100363.27;125683;1093;23476;-59
2021/06/18 11:26:09;;;;;;;7.75;2.43;;;;;;;31.29;34.53;100367.30;125579;1093;22852;-59
2021/06/18 11:28:50;;;;;;;6.08;2.33;;;;;;;31.34;34.12;100352.51;125609;1096;22797;-59
2021/06/18 11:31:43;;;;;;;10.00;2.27;;;;;;;31.41;34.18;100365.95;126282;1090;22753;-61
2021/06/18 11:34:31;;;;;;;8.55;2.68;;;;;;;31.49;33.75;100354.97;125719;1093;22760;-60
2021/06/18 11:37:02;;;;;;;7.23;2.18;;;;;;;31.57;33.73;100363.38;125541;1093;22764;-60
2021/06/18 11:39:34;;;;;;;8.63;2.60;;;;;;;31.61;33.96;100363.63;125887;1093;22767;-60
2021/06/18 11:42:09;;;;;;;8.93;2.20;;;;;;;31.65;33.71;100361.00;125515;1093;25947;-60